Phillips, Wisconsin
Current Conditions -  °F | °C
As of 11:55 AM on Saturday 20 Dec 2014 (Local Time) from KPBH Reporting Station
Overcast Overcast  
Wind Chill: 20°   Ceiling: 800
Heat Index: 27°   Visibility: 7mi
Dew Point: 24°   Wind: 6mph
Humidity: 90%   Direction: 160°SSE
Pressure: 30.15"   Gusts: NA
Location:  45.69°N, 90.41°W
Report Text: KPBH 201755Z AUTO 16005KT 7SM OVC008 M03/M04 A3015 RMK AO2 T10301045 11030 21048
Loading
Personal Weather Stations






























Interactive Weather Map New forecast layout! Learn more

10-Day Weather Forecast

Advertisements
Track Severe Weather on mobile